Time;durP1;ratioP1;P1;durP2;ratioP2;P2;SDS_P1;SDS_P2;PMS_P1;PMS_P2;Temp;Humidity;BMP_temperature;BMP_pressure;BME280_temperature;BME280_humidity;BME280_pressure;Samples;Min_cycle;Max_cycle;Signal;HPM_P1;HPM_P2
2021/08/18 00:01:47;;;;;;;;;6.67;5.00;;;;;;;;5026090;28;45302;-82
2021/08/18 00:04:13;;;;;;;;;6.25;4.25;;;;;;;;5026560;28;45197;-82
2021/08/18 00:06:38;;;;;;;;;4.75;4.50;;;;;;;;5025167;28;45158;-82
2021/08/18 00:09:04;;;;;;;;;3.00;3.00;;;;;;;;5024129;28;44662;-82
2021/08/18 00:11:30;;;;;;;;;5.00;4.00;;;;;;;;5004099;28;45436;-82
2021/08/18 00:13:55;;;;;;;;;8.33;5.33;;;;;;;;4990080;28;45805;-82
2021/08/18 00:16:23;;;;;;;;;4.67;3.67;;;;;;;;5001667;28;45310;-82
2021/08/18 00:18:52;;;;;;;;;2.25;2.25;;;;;;;;5000830;28;45420;-82
2021/08/18 00:21:17;;;;;;;;;5.00;3.75;;;;;;;;5000676;28;45214;-82
2021/08/18 00:23:43;;;;;;;;;3.00;2.75;;;;;;;;5000860;28;45433;-82
2021/08/18 00:26:08;;;;;;;;;6.75;4.50;;;;;;;;5000513;28;45271;-82
2021/08/18 00:28:33;;;;;;;;;5.67;5.33;;;;;;;;5000554;28;45301;-82
2021/08/18 00:30:58;;;;;;;;;4.33;4.00;;;;;;;;5005509;28;45399;-82
2021/08/18 00:33:23;;;;;;;;;7.00;4.00;;;;;;;;5008662;28;45582;-82
2021/08/18 00:35:49;;;;;;;;;7.50;3.00;;;;;;;;5000036;28;45396;-82
2021/08/18 00:38:14;;;;;;;;;5.67;2.67;;;;;;;;4982981;28;45650;-82
2021/08/18 00:40:39;;;;;;;;;5.50;4.00;;;;;;;;5000605;28;45466;-82
2021/08/18 00:43:04;;;;;;;;;5.67;3.00;;;;;;;;4983088;28;45433;-82
2021/08/18 00:45:29;;;;;;;;;6.00;4.00;;;;;;;;5000231;28;45419;-82
2021/08/18 00:47:55;;;;;;;;;5.33;3.67;;;;;;;;5001695;28;45347;-83
2021/08/18 00:50:22;;;;;;;;;4.50;3.00;;;;;;;;4986468;28;45346;-81
2021/08/18 00:52:47;;;;;;;;;4.75;3.00;;;;;;;;5004273;28;45358;-82
2021/08/18 00:55:15;;;;;;;;;3.75;3.25;;;;;;;;4987009;28;47079;-81
2021/08/18 00:57:40;;;;;;;;;3.50;2.50;;;;;;;;4998173;28;46170;-81
2021/08/18 01:00:06;;;;;;;;;7.00;3.00;;;;;;;;4989398;28;45015;-81
2021/08/18 01:02:33;;;;;;;;;3.00;3.00;;;;;;;;5004482;28;45349;-81
2021/08/18 01:04:58;;;;;;;;;4.50;2.50;;;;;;;;5001556;28;45285;-81
2021/08/18 01:07:24;;;;;;;;;5.33;3.33;;;;;;;;4983818;28;45285;-81
2021/08/18 01:09:49;;;;;;;;;2.67;2.33;;;;;;;;4983648;28;45354;-81
2021/08/18 01:12:14;;;;;;;;;4.33;3.00;;;;;;;;5000385;28;45459;-81
2021/08/18 01:14:39;;;;;;;;;2.67;2.00;;;;;;;;5000007;28;45383;-81
2021/08/18 01:17:05;;;;;;;;;5.25;2.75;;;;;;;;4982376;28;45452;-81
2021/08/18 01:19:30;;;;;;;;;4.00;4.00;;;;;;;;5002734;28;45492;-81
2021/08/18 01:21:55;;;;;;;;;4.50;2.50;;;;;;;;5003630;28;45388;-81
2021/08/18 01:24:21;;;;;;;;;6.67;2.67;;;;;;;;4985713;28;47404;-81
2021/08/18 01:26:46;;;;;;;;;5.50;3.75;;;;;;;;5003304;28;45368;-81
2021/08/18 01:29:12;;;;;;;;;3.00;3.00;;;;;;;;5003048;28;45366;-81
2021/08/18 01:31:37;;;;;;;;;6.50;5.00;;;;;;;;5014467;28;45372;-81
2021/08/18 01:34:03;;;;;;;;;6.50;2.50;;;;;;;;5007925;28;45366;-81
2021/08/18 01:36:29;;;;;;;;;3.75;3.75;;;;;;;;5006310;28;45424;-81
2021/08/18 01:39:05;;;;;;;;;10.00;3.50;;;;;;;;4986551;28;45306;-81
2021/08/18 01:41:30;;;;;;;;;6.75;3.50;;;;;;;;5002851;28;45449;-81
2021/08/18 01:43:56;;;;;;;;;3.50;2.75;;;;;;;;5002718;28;45736;-81
2021/08/18 01:46:21;;;;;;;;;4.00;3.00;;;;;;;;5004543;28;45227;-81
2021/08/18 01:48:46;;;;;;;;;3.00;3.00;;;;;;;;5004162;28;45325;-81
2021/08/18 01:51:11;;;;;;;;;3.00;3.00;;;;;;;;5005664;28;45207;-81
2021/08/18 01:53:42;;;;;;;;;2.67;2.67;;;;;;;;5010944;28;45557;-81
2021/08/18 01:56:08;;;;;;;;;6.75;3.75;;;;;;;;5019935;28;45368;-81
2021/08/18 01:58:34;;;;;;;;;5.50;2.75;;;;;;;;5007596;28;45412;-80
2021/08/18 02:00:59;;;;;;;;;3.75;3.00;;;;;;;;4989127;28;45731;-81
2021/08/18 02:03:25;;;;;;;;;6.75;4.75;;;;;;;;5003314;28;46122;-80
2021/08/18 02:05:50;;;;;;;;;7.33;2.67;;;;;;;;5003179;28;45240;-81
2021/08/18 02:08:15;;;;;;;;;3.75;3.50;;;;;;;;5003531;28;45208;-81
2021/08/18 02:10:40;;;;;;;;;2.67;2.67;;;;;;;;5003373;28;45219;-81
2021/08/18 02:13:06;;;;;;;;;5.33;2.33;;;;;;;;5002825;28;45214;-80
2021/08/18 02:15:32;;;;;;;;;3.00;2.00;;;;;;;;5015197;28;45260;-81
2021/08/18 02:17:58;;;;;;;;;2.75;2.75;;;;;;;;5024768;28;45151;-80
2021/08/18 02:20:25;;;;;;;;;4.00;3.50;;;;;;;;5025947;28;45249;-80
2021/08/18 02:22:51;;;;;;;;;3.00;3.00;;;;;;;;5024445;28;45553;-81
2021/08/18 02:25:16;;;;;;;;;4.75;2.50;;;;;;;;5022628;28;45281;-81
2021/08/18 02:27:41;;;;;;;;;6.25;3.25;;;;;;;;5022324;28;45246;-80
2021/08/18 02:30:08;;;;;;;;;4.50;3.00;;;;;;;;5018611;28;45452;-81
2021/08/18 02:32:33;;;;;;;;;3.00;3.00;;;;;;;;5001998;28;46381;-80
2021/08/18 02:34:58;;;;;;;;;2.75;2.75;;;;;;;;5002138;28;45400;-81
2021/08/18 02:37:23;;;;;;;;;4.25;3.25;;;;;;;;4985512;28;45401;-81
2021/08/18 02:39:49;;;;;;;;;2.50;2.00;;;;;;;;4982908;28;45458;-81
2021/08/18 02:42:14;;;;;;;;;4.00;2.00;;;;;;;;5017171;28;45413;-81
2021/08/18 02:44:39;;;;;;;;;3.25;2.50;;;;;;;;5023911;28;45221;-81
2021/08/18 02:47:04;;;;;;;;;6.33;3.00;;;;;;;;5023264;28;45316;-81
2021/08/18 02:49:30;;;;;;;;;3.50;2.75;;;;;;;;5025357;28;45265;-81
2021/08/18 02:51:55;;;;;;;;;6.00;3.00;;;;;;;;5026533;28;46298;-81
2021/08/18 02:54:23;;;;;;;;;3.00;3.00;;;;;;;;5026485;28;45313;-80
2021/08/18 02:56:49;;;;;;;;;2.75;0.75;;;;;;;;5013632;28;45231;-81
2021/08/18 02:59:14;;;;;;;;;3.25;3.25;;;;;;;;5006683;28;45349;-81
2021/08/18 03:01:39;;;;;;;;;3.67;2.67;;;;;;;;4988235;28;48396;-81
2021/08/18 03:04:04;;;;;;;;;3.33;2.00;;;;;;;;5008658;28;45625;-81
2021/08/18 03:06:29;;;;;;;;;3.75;3.25;;;;;;;;5006195;28;45460;-81
2021/08/18 03:08:55;;;;;;;;;5.00;5.00;;;;;;;;5002133;28;45417;-81
2021/08/18 03:11:20;;;;;;;;;7.00;2.33;;;;;;;;5005852;28;46361;-81
2021/08/18 03:13:45;;;;;;;;;8.00;3.33;;;;;;;;5009267;28;45418;-81
2021/08/18 03:16:10;;;;;;;;;3.00;3.00;;;;;;;;5018123;28;45290;-81
2021/08/18 03:18:35;;;;;;;;;3.33;2.33;;;;;;;;5021557;28;45324;-81
2021/08/18 03:21:02;;;;;;;;;6.00;3.00;;;;;;;;5003399;28;47110;-81
2021/08/18 03:23:27;;;;;;;;;4.50;3.25;;;;;;;;5021688;28;45406;-81
2021/08/18 03:25:52;;;;;;;;;5.33;4.00;;;;;;;;5021483;28;45312;-81
2021/08/18 03:28:18;;;;;;;;;3.00;3.00;;;;;;;;5021460;28;45297;-81
2021/08/18 03:30:43;;;;;;;;;4.67;2.67;;;;;;;;5015553;28;45532;-81
2021/08/18 03:33:08;;;;;;;;;4.25;3.25;;;;;;;;5011840;28;45330;-81
2021/08/18 03:35:34;;;;;;;;;4.00;2.75;;;;;;;;5001182;28;45416;-81
2021/08/18 03:37:59;;;;;;;;;2.25;2.25;;;;;;;;5011207;28;45451;-81
2021/08/18 03:40:24;;;;;;;;;4.00;4.00;;;;;;;;5021552;28;46169;-81
2021/08/18 03:42:50;;;;;;;;;4.67;4.67;;;;;;;;5021011;28;45151;-81
2021/08/18 03:45:15;;;;;;;;;4.25;4.25;;;;;;;;5007547;28;45295;-81
2021/08/18 03:47:40;;;;;;;;;3.33;3.33;;;;;;;;5027980;28;45745;-81
2021/08/18 03:50:06;;;;;;;;;6.25;4.25;;;;;;;;5028761;28;45359;-82
2021/08/18 03:52:31;;;;;;;;;4.75;4.50;;;;;;;;5026635;28;45218;-81
2021/08/18 03:54:57;;;;;;;;;5.67;4.33;;;;;;;;5026181;28;45259;-80
2021/08/18 03:57:22;;;;;;;;;6.00;4.00;;;;;;;;5005853;28;45184;-81
2021/08/18 03:59:47;;;;;;;;;5.50;5.00;;;;;;;;5001204;28;46235;-81
2021/08/18 04:02:12;;;;;;;;;3.33;3.00;;;;;;;;5001540;28;45135;-81
2021/08/18 04:04:38;;;;;;;;;5.00;3.75;;;;;;;;5001166;28;45368;-81
2021/08/18 04:07:03;;;;;;;;;5.33;3.33;;;;;;;;5001644;28;45416;-81
2021/08/18 04:09:28;;;;;;;;;7.75;4.00;;;;;;;;5000748;28;46541;-81
2021/08/18 04:11:53;;;;;;;;;6.33;5.33;;;;;;;;5001208;28;45238;-81
2021/08/18 04:14:19;;;;;;;;;4.67;4.33;;;;;;;;5000736;28;45235;-81
2021/08/18 04:16:44;;;;;;;;;8.33;4.33;;;;;;;;4983423;28;45840;-81
2021/08/18 04:19:09;;;;;;;;;7.00;5.33;;;;;;;;4995918;28;48269;-81
2021/08/18 04:21:34;;;;;;;;;3.67;3.67;;;;;;;;5020663;28;45480;-81
2021/08/18 04:24:00;;;;;;;;;5.33;5.33;;;;;;;;5020649;28;45355;-81
2021/08/18 04:26:25;;;;;;;;;6.33;5.00;;;;;;;;5021134;28;45241;-81
2021/08/18 04:28:50;;;;;;;;;6.00;3.33;;;;;;;;5020184;28;46279;-81
2021/08/18 04:31:15;;;;;;;;;4.33;4.00;;;;;;;;5010003;28;45543;-81
2021/08/18 04:33:40;;;;;;;;;6.00;5.00;;;;;;;;5003360;28;45381;-81
2021/08/18 04:36:06;;;;;;;;;7.00;4.00;;;;;;;;5001901;28;45532;-81
2021/08/18 04:38:31;;;;;;;;;4.33;3.67;;;;;;;;5015007;28;46364;-81
2021/08/18 04:40:56;;;;;;;;;6.67;6.67;;;;;;;;5022143;28;45636;-81
2021/08/18 04:43:21;;;;;;;;;5.50;5.50;;;;;;;;5022945;28;45380;-81
2021/08/18 04:45:47;;;;;;;;;4.50;4.50;;;;;;;;4986534;28;45335;-81
2021/08/18 04:48:12;;;;;;;;;7.50;4.50;;;;;;;;5016473;28;45387;-81
2021/08/18 04:50:37;;;;;;;;;7.50;5.75;;;;;;;;5023675;28;45351;-81
2021/08/18 04:53:07;;;;;;;;;6.67;5.33;;;;;;;;4995234;28;45396;-81
2021/08/18 04:55:32;;;;;;;;;5.75;4.25;;;;;;;;4987923;28;45155;-81
2021/08/18 04:57:57;;;;;;;;;10.25;6.00;;;;;;;;4986980;28;48239;-81
2021/08/18 05:00:23;;;;;;;;;5.00;4.67;;;;;;;;4991280;28;45210;-81
2021/08/18 05:02:48;;;;;;;;;5.25;5.25;;;;;;;;4986122;28;45328;-81
2021/08/18 05:05:13;;;;;;;;;4.67;4.33;;;;;;;;5003968;28;45148;-81
2021/08/18 05:07:38;;;;;;;;;5.50;4.50;;;;;;;;5004009;28;46520;-81
2021/08/18 05:10:04;;;;;;;;;4.67;4.67;;;;;;;;5004390;28;45255;-81
2021/08/18 05:12:29;;;;;;;;;7.50;6.50;;;;;;;;5004099;28;45405;-81
2021/08/18 05:14:54;;;;;;;;;4.25;4.00;;;;;;;;5003457;28;46977;-81
2021/08/18 05:17:20;;;;;;;;;9.75;6.00;;;;;;;;5005046;28;45579;-81
2021/08/18 05:19:45;;;;;;;;;5.25;5.00;;;;;;;;5004368;28;45329;-81
2021/08/18 05:22:11;;;;;;;;;7.75;6.00;;;;;;;;5003865;28;45501;-82
2021/08/18 05:24:36;;;;;;;;;5.67;4.33;;;;;;;;5003231;28;45286;-82
2021/08/18 05:27:02;;;;;;;;;6.25;6.25;;;;;;;;5002852;28;46541;-81
2021/08/18 05:29:27;;;;;;;;;8.00;5.25;;;;;;;;5002814;28;45413;-82
2021/08/18 05:31:52;;;;;;;;;5.00;5.00;;;;;;;;5002988;28;45481;-82
2021/08/18 05:34:17;;;;;;;;;8.33;3.67;;;;;;;;5002522;28;45536;-82
2021/08/18 05:36:43;;;;;;;;;5.00;5.00;;;;;;;;4985044;28;47239;-82
2021/08/18 05:39:08;;;;;;;;;6.00;5.67;;;;;;;;5002876;28;45401;-82
2021/08/18 05:41:33;;;;;;;;;5.33;5.33;;;;;;;;5002979;28;45321;-82
2021/08/18 05:43:59;;;;;;;;;6.00;5.25;;;;;;;;5002827;28;45381;-82
2021/08/18 05:46:24;;;;;;;;;7.00;4.25;;;;;;;;4985051;28;47093;-82
2021/08/18 05:48:49;;;;;;;;;5.50;5.50;;;;;;;;5002542;28;45321;-82
2021/08/18 05:51:14;;;;;;;;;6.00;5.67;;;;;;;;5003095;28;45607;-82
2021/08/18 05:53:40;;;;;;;;;6.00;6.00;;;;;;;;5002518;28;45171;-82
2021/08/18 05:56:05;;;;;;;;;5.67;4.67;;;;;;;;4984842;28;46217;-82
2021/08/18 05:58:30;;;;;;;;;6.25;6.25;;;;;;;;5002366;28;45191;-82
2021/08/18 06:00:56;;;;;;;;;7.50;5.00;;;;;;;;5002807;28;45289;-82
2021/08/18 06:03:21;;;;;;;;;6.25;5.00;;;;;;;;4984447;28;45578;-82
2021/08/18 06:05:46;;;;;;;;;8.00;5.00;;;;;;;;5001994;28;46152;-82
2021/08/18 06:08:11;;;;;;;;;7.33;6.00;;;;;;;;5002864;28;45163;-82
2021/08/18 06:10:37;;;;;;;;;6.00;4.33;;;;;;;;4984693;28;45334;-82
2021/08/18 06:13:02;;;;;;;;;6.00;5.33;;;;;;;;5002142;28;45199;-82
2021/08/18 06:15:28;;;;;;;;;4.50;4.50;;;;;;;;5002181;28;45205;-82
2021/08/18 06:17:53;;;;;;;;;5.50;5.25;;;;;;;;5002130;28;45709;-82
2021/08/18 06:20:19;;;;;;;;;7.00;5.00;;;;;;;;5002279;28;45249;-82
2021/08/18 06:22:45;;;;;;;;;6.50;5.00;;;;;;;;5002015;28;45250;-82
2021/08/18 06:25:10;;;;;;;;;8.50;5.00;;;;;;;;5002081;28;45440;-82
2021/08/18 06:27:35;;;;;;;;;6.25;4.00;;;;;;;;4984258;28;45401;-82
2021/08/18 06:30:01;;;;;;;;;6.25;4.75;;;;;;;;5002090;28;45258;-82
2021/08/18 06:32:26;;;;;;;;;8.25;5.00;;;;;;;;5002370;28;45443;-82
2021/08/18 06:34:53;;;;;;;;;4.25;4.00;;;;;;;;4986231;28;47987;-82
2021/08/18 06:37:19;;;;;;;;;7.00;5.25;;;;;;;;5004818;28;45484;-82
2021/08/18 06:39:44;;;;;;;;;6.25;5.50;;;;;;;;5008516;28;45274;-81
2021/08/18 06:42:09;;;;;;;;;8.25;6.00;;;;;;;;5009802;28;45499;-82
2021/08/18 06:44:35;;;;;;;;;5.00;5.00;;;;;;;;5016947;28;45151;-82
2021/08/18 06:47:00;;;;;;;;;9.50;4.75;;;;;;;;4988609;28;45230;-82
2021/08/18 06:49:25;;;;;;;;;6.50;6.50;;;;;;;;5007754;28;45139;-81
2021/08/18 06:51:50;;;;;;;;;7.67;7.33;;;;;;;;4989133;28;45629;-82
2021/08/18 06:54:16;;;;;;;;;8.00;5.00;;;;;;;;5005671;28;46437;-80
2021/08/18 06:56:41;;;;;;;;;7.00;6.00;;;;;;;;5003170;28;45280;-82
2021/08/18 06:59:06;;;;;;;;;8.33;5.00;;;;;;;;5002942;28;45380;-82
2021/08/18 07:01:32;;;;;;;;;7.75;6.00;;;;;;;;4984830;28;45331;-83
2021/08/18 07:03:57;;;;;;;;;4.33;4.33;;;;;;;;4987982;28;47273;-81
2021/08/18 07:06:22;;;;;;;;;8.75;6.75;;;;;;;;4984811;28;45242;-80
2021/08/18 07:08:47;;;;;;;;;6.33;6.00;;;;;;;;5003404;28;45377;-81
2021/08/18 07:11:12;;;;;;;;;7.67;6.00;;;;;;;;5001695;28;45405;-80
2021/08/18 07:13:38;;;;;;;;;6.25;5.75;;;;;;;;5001702;28;45320;-80
2021/08/18 07:16:04;;;;;;;;;5.25;5.00;;;;;;;;5015221;28;45352;-81
2021/08/18 07:18:30;;;;;;;;;5.00;5.00;;;;;;;;5002756;28;45468;-81
2021/08/18 07:20:55;;;;;;;;;5.00;5.00;;;;;;;;5002500;28;45443;-81
2021/08/18 07:23:20;;;;;;;;;8.00;5.25;;;;;;;;4984287;28;48283;-81
2021/08/18 07:25:46;;;;;;;;;7.00;6.25;;;;;;;;5001653;28;45379;-81
2021/08/18 07:28:12;;;;;;;;;5.00;4.00;;;;;;;;5002088;28;45404;-81
2021/08/18 07:30:37;;;;;;;;;8.33;7.00;;;;;;;;5003206;28;45532;-81
2021/08/18 07:33:02;;;;;;;;;8.00;6.00;;;;;;;;4984781;28;47694;-81
2021/08/18 07:35:27;;;;;;;;;7.00;5.00;;;;;;;;5004323;28;45383;-81
2021/08/18 07:37:53;;;;;;;;;7.25;5.00;;;;;;;;5005049;28;45328;-82
2021/08/18 07:40:18;;;;;;;;;6.75;4.75;;;;;;;;5004014;28;45341;-82
2021/08/18 07:42:43;;;;;;;;;6.00;4.50;;;;;;;;5005428;28;46575;-82
2021/08/18 07:45:09;;;;;;;;;9.00;4.25;;;;;;;;5020226;28;45370;-82
2021/08/18 07:47:34;;;;;;;;;4.75;4.75;;;;;;;;5008074;28;44825;-82
2021/08/18 07:50:00;;;;;;;;;9.25;5.00;;;;;;;;5025674;28;45398;-82
2021/08/18 07:52:25;;;;;;;;;6.00;6.00;;;;;;;;5024223;28;45146;-82
2021/08/18 07:54:50;;;;;;;;;5.00;4.00;;;;;;;;5023883;28;45209;-82
2021/08/18 07:57:15;;;;;;;;;10.75;4.50;;;;;;;;4988101;28;45266;-82
2021/08/18 07:59:41;;;;;;;;;6.00;5.00;;;;;;;;4984100;28;46070;-82
2021/08/18 08:02:06;;;;;;;;;6.00;5.75;;;;;;;;5001467;28;46551;-82
2021/08/18 08:04:31;;;;;;;;;8.00;5.00;;;;;;;;5014868;28;45194;-82
2021/08/18 08:06:57;;;;;;;;;3.67;3.67;;;;;;;;5015400;28;45130;-82
2021/08/18 08:09:22;;;;;;;;;5.67;4.33;;;;;;;;5002412;28;45285;-82
2021/08/18 08:11:47;;;;;;;;;5.00;4.00;;;;;;;;4984496;28;47169;-82
2021/08/18 08:14:12;;;;;;;;;6.00;4.00;;;;;;;;5001169;28;45393;-82
2021/08/18 08:16:37;;;;;;;;;6.50;5.00;;;;;;;;5001434;28;45301;-83
2021/08/18 08:19:04;;;;;;;;;5.25;5.25;;;;;;;;5001357;28;45409;-82
2021/08/18 08:21:29;;;;;;;;;6.00;5.00;;;;;;;;5000888;28;45349;-82
2021/08/18 08:23:55;;;;;;;;;4.75;4.75;;;;;;;;5013471;28;45658;-82
2021/08/18 08:26:20;;;;;;;;;8.25;5.00;;;;;;;;5016062;28;45269;-82
2021/08/18 08:28:45;;;;;;;;;4.00;4.00;;;;;;;;5000582;28;45379;-82
2021/08/18 08:31:10;;;;;;;;;5.00;4.00;;;;;;;;4982787;28;47538;-82
2021/08/18 08:33:36;;;;;;;;;5.25;5.25;;;;;;;;5000960;28;45339;-82
2021/08/18 08:36:01;;;;;;;;;4.00;3.75;;;;;;;;5005877;28;45386;-81
2021/08/18 08:38:26;;;;;;;;;4.00;4.00;;;;;;;;4993527;28;45278;-82
2021/08/18 08:40:52;;;;;;;;;8.00;5.00;;;;;;;;5008031;28;45482;-82
2021/08/18 08:43:19;;;;;;;;;3.50;3.00;;;;;;;;5003878;28;45356;-82
2021/08/18 08:45:46;;;;;;;;;7.75;4.75;;;;;;;;4984584;28;45365;-82
2021/08/18 08:48:13;;;;;;;;;4.75;4.00;;;;;;;;5000903;28;45272;-82
2021/08/18 08:50:39;;;;;;;;;5.25;4.00;;;;;;;;4982435;28;47033;-82
2021/08/18 08:53:04;;;;;;;;;4.50;4.00;;;;;;;;5000189;28;45293;-82
2021/08/18 08:55:30;;;;;;;;;3.00;1.00;;;;;;;;5000497;28;45210;-82
2021/08/18 08:57:56;;;;;;;;;6.00;4.00;;;;;;;;4982627;28;45505;-82
2021/08/18 09:00:22;;;;;;;;;7.50;5.50;;;;;;;;5000457;28;45406;-82
2021/08/18 09:02:47;;;;;;;;;4.50;4.50;;;;;;;;4982435;28;46148;-82
2021/08/18 09:05:24;;;;;;;;;5.00;5.00;;;;;;;;4982838;28;45341;-82
2021/08/18 09:07:55;;;;;;;;;5.00;5.00;;;;;;;;4995469;28;45983;-82
2021/08/18 09:10:21;;;;;;;;;5.75;5.00;;;;;;;;5020479;28;46657;-82
2021/08/18 09:12:46;;;;;;;;;10.25;6.00;;;;;;;;5015473;28;45484;-82
2021/08/18 09:15:21;;;;;;;;;6.00;5.00;;;;;;;;5002565;28;45238;-81
2021/08/18 09:17:48;;;;;;;;;7.00;5.25;;;;;;;;5003001;28;45348;-82
2021/08/18 09:20:33;;;;;;;;;6.50;5.50;;;;;;;;5004024;28;45355;-82
2021/08/18 09:23:00;;;;;;;;;4.50;4.50;;;;;;;;4986338;28;45859;-82
2021/08/18 09:25:27;;;;;;;;;3.75;3.50;;;;;;;;5004108;28;45354;-83
2021/08/18 09:27:53;;;;;;;;;8.00;5.25;;;;;;;;5003658;28;45302;-82
2021/08/18 09:30:21;;;;;;;;;7.00;6.25;;;;;;;;5002727;28;46187;-83
2021/08/18 09:32:47;;;;;;;;;7.00;7.00;;;;;;;;5002695;28;45323;-82
2021/08/18 09:35:13;;;;;;;;;5.00;5.00;;;;;;;;5015342;28;45410;-82
2021/08/18 09:37:40;;;;;;;;;6.75;5.00;;;;;;;;5020280;28;45492;-83
2021/08/18 09:40:15;;;;;;;;;5.50;5.50;;;;;;;;5022213;28;46438;-82
2021/08/18 09:42:41;;;;;;;;;5.25;5.25;;;;;;;;5023506;28;45383;-82
2021/08/18 09:45:23;;;;;;;;;7.00;6.00;;;;;;;;5023219;28;45293;-82
2021/08/18 09:47:58;;;;;;;;;5.00;5.00;;;;;;;;4995797;28;45566;-82
2021/08/18 09:50:24;;;;;;;;;6.50;4.50;;;;;;;;5003115;28;46029;-83
2021/08/18 09:52:50;;;;;;;;;5.75;4.00;;;;;;;;5003504;28;45432;-83
2021/08/18 09:55:19;;;;;;;;;4.25;3.75;;;;;;;;5003117;28;45267;-82
2021/08/18 09:57:45;;;;;;;;;4.00;4.00;;;;;;;;5002834;28;45281;-82
2021/08/18 10:00:10;;;;;;;;;4.00;4.00;;;;;;;;5002342;28;46027;-82
2021/08/18 10:02:36;;;;;;;;;4.25;4.25;;;;;;;;5002473;28;45397;-83
2021/08/18 10:05:02;;;;;;;;;4.00;4.00;;;;;;;;5002315;28;45368;-83
2021/08/18 10:07:27;;;;;;;;;5.25;4.75;;;;;;;;4985147;28;45575;-83
2021/08/18 10:09:53;;;;;;;;;5.50;4.00;;;;;;;;5002793;28;45558;-83
2021/08/18 10:12:19;;;;;;;;;5.50;3.75;;;;;;;;4985118;28;46074;-83
2021/08/18 10:14:44;;;;;;;;;5.50;3.50;;;;;;;;5003956;28;45420;-83
2021/08/18 10:17:09;;;;;;;;;2.75;2.75;;;;;;;;5003637;28;45564;-82
2021/08/18 10:19:35;;;;;;;;;1.00;1.00;;;;;;;;4986269;28;48294;-82
2021/08/18 10:22:01;;;;;;;;;3.50;2.00;;;;;;;;5003546;28;45572;-83
2021/08/18 10:24:30;;;;;;;;;3.75;3.75;;;;;;;;5002203;28;45250;-82
2021/08/18 10:26:56;;;;;;;;;3.25;2.00;;;;;;;;5002575;28;45318;-83
2021/08/18 10:29:32;;;;;;;;;4.00;2.25;;;;;;;;4984442;28;48599;-83
2021/08/18 10:32:01;;;;;;;;;2.50;2.00;;;;;;;;5002336;28;45482;-82
2021/08/18 10:34:33;;;;;;;;;2.00;2.00;;;;;;;;4984560;28;45539;-83
2021/08/18 10:37:03;;;;;;;;;2.00;2.00;;;;;;;;5002049;28;45448;-83
2021/08/18 10:39:34;;;;;;;;;4.00;2.00;;;;;;;;5002504;28;45376;-83
2021/08/18 10:41:59;;;;;;;;;4.25;3.00;;;;;;;;4984238;28;45291;-83
2021/08/18 10:44:43;;;;;;;;;2.00;2.00;;;;;;;;5002296;28;45283;-83
2021/08/18 10:47:11;;;;;;;;;1.50;1.50;;;;;;;;5001514;28;45381;-83
2021/08/18 10:49:36;;;;;;;;;4.00;3.00;;;;;;;;4983924;28;47702;-84
2021/08/18 10:52:02;;;;;;;;;3.00;3.00;;;;;;;;5001131;28;45427;-83
2021/08/18 10:54:30;;;;;;;;;4.50;3.00;;;;;;;;5002577;28;45305;-83
2021/08/18 10:56:58;;;;;;;;;1.75;1.50;;;;;;;;5001986;28;45601;-83
2021/08/18 10:59:36;;;;;;;;;6.00;2.75;;;;;;;;5002375;28;45505;-83
2021/08/18 11:02:02;;;;;;;;;8.25;5.25;;;;;;;;5002065;28;45525;-83
2021/08/18 11:04:43;;;;;;;;;6.25;5.00;;;;;;;;5001469;28;45407;-83
2021/08/18 11:07:09;;;;;;;;;4.75;4.75;;;;;;;;5001587;28;45447;-83
2021/08/18 11:09:50;;;;;;;;;6.00;6.00;;;;;;;;5001397;28;46369;-83
2021/08/18 11:12:56;;;;;;;;;7.25;6.00;;;;;;;;5001566;28;45692;-83
2021/08/18 11:15:21;;;;;;;;;5.50;4.75;;;;;;;;4969560;28;45392;-83
2021/08/18 11:17:47;;;;;;;;;5.33;5.00;;;;;;;;4979319;28;45338;-83
2021/08/18 11:20:16;;;;;;;;;7.00;5.25;;;;;;;;4990482;28;46357;-83
2021/08/18 11:22:42;;;;;;;;;4.75;4.75;;;;;;;;5002115;28;45214;-83
2021/08/18 11:25:07;;;;;;;;;7.75;6.00;;;;;;;;5001712;28;45205;-83
2021/08/18 11:27:32;;;;;;;;;7.25;7.25;;;;;;;;5001973;28;45463;-83
2021/08/18 11:29:57;;;;;;;;;6.00;5.00;;;;;;;;5001695;28;46517;-83
2021/08/18 11:32:26;;;;;;;;;6.67;6.00;;;;;;;;5000921;28;45320;-83
2021/08/18 11:34:51;;;;;;;;;9.00;7.50;;;;;;;;5001061;28;45495;-83
2021/08/18 11:37:16;;;;;;;;;9.50;8.50;;;;;;;;5017658;28;45407;-83
2021/08/18 11:39:49;;;;;;;;;7.75;7.50;;;;;;;;5020966;28;45330;-83
2021/08/18 11:42:15;;;;;;;;;8.50;8.50;;;;;;;;5020666;28;45420;-83
2021/08/18 11:44:44;;;;;;;;;10.00;6.50;;;;;;;;5003091;28;45359;-83
2021/08/18 11:47:11;;;;;;;;;9.25;7.50;;;;;;;;5020625;28;45423;-83
2021/08/18 11:49:37;;;;;;;;;11.00;8.00;;;;;;;;5020560;28;46008;-83
2021/08/18 11:52:03;;;;;;;;;10.50;10.50;;;;;;;;5015972;28;45349;-83
2021/08/18 11:54:29;;;;;;;;;12.75;8.75;;;;;;;;4991350;28;45175;-82
2021/08/18 11:57:04;;;;;;;;;10.25;9.00;;;;;;;;5005007;28;45222;-83
2021/08/18 11:59:29;;;;;;;;;10.00;7.25;;;;;;;;5013178;28;45190;-83
2021/08/18 12:01:55;;;;;;;;;14.00;10.25;;;;;;;;5020410;28;45215;-82
2021/08/18 12:04:21;;;;;;;;;13.00;9.50;;;;;;;;5007672;28;45416;-82
2021/08/18 12:06:47;;;;;;;;;10.25;8.50;;;;;;;;5001128;28;45394;-83
2021/08/18 12:09:22;;;;;;;;;10.50;9.25;;;;;;;;4983068;28;47696;-83
2021/08/18 12:11:48;;;;;;;;;15.25;8.75;;;;;;;;4971117;28;45739;-83
2021/08/18 12:14:18;;;;;;;;;12.75;10.75;;;;;;;;5000980;28;45411;-83
2021/08/18 12:16:44;;;;;;;;;12.50;10.25;;;;;;;;4998035;28;45243;-83
2021/08/18 12:19:16;;;;;;;;;9.50;8.50;;;;;;;;4995987;28;47362;-83
2021/08/18 12:21:42;;;;;;;;;9.00;7.75;;;;;;;;5001974;28;45243;-83
2021/08/18 12:24:09;;;;;;;;;17.00;11.75;;;;;;;;5000741;28;45384;-83
2021/08/18 12:26:35;;;;;;;;;9.75;9.75;;;;;;;;5000973;28;45781;-82
2021/08/18 12:29:02;;;;;;;;;10.00;9.00;;;;;;;;4984466;28;47023;-83
2021/08/18 12:31:47;;;;;;;;;11.50;7.50;;;;;;;;4984361;28;45424;-82
2021/08/18 12:34:12;;;;;;;;;6.50;6.25;;;;;;;;4983919;28;45464;-83
2021/08/18 12:36:37;;;;;;;;;11.00;8.00;;;;;;;;4986243;28;45491;-83
2021/08/18 12:39:03;;;;;;;;;13.00;9.33;;;;;;;;4985441;28;45573;-83
2021/08/18 12:41:29;;;;;;;;;7.75;7.00;;;;;;;;4985828;28;45386;-82
2021/08/18 12:44:08;;;;;;;;;8.00;8.00;;;;;;;;4985735;28;45308;-83
2021/08/18 12:46:37;;;;;;;;;7.25;6.75;;;;;;;;4984200;28;45288;-83
2021/08/18 12:49:21;;;;;;;;;7.25;6.00;;;;;;;;4980619;28;47766;-83
2021/08/18 12:51:46;;;;;;;;;7.75;6.75;;;;;;;;4982228;28;45353;-82
2021/08/18 12:54:12;;;;;;;;;9.67;6.00;;;;;;;;4982927;28;45492;-82
2021/08/18 12:56:37;;;;;;;;;8.00;8.00;;;;;;;;4981540;28;45318;-83
2021/08/18 12:59:02;;;;;;;;;8.00;8.00;;;;;;;;4990025;28;46296;-83
2021/08/18 13:01:27;;;;;;;;;7.25;7.25;;;;;;;;5001001;28;45421;-83
2021/08/18 13:03:53;;;;;;;;;8.33;8.33;;;;;;;;4999278;28;45357;-83
2021/08/18 13:06:18;;;;;;;;;8.75;8.00;;;;;;;;5000491;28;45335;-83
2021/08/18 13:08:43;;;;;;;;;8.67;6.33;;;;;;;;4999625;28;47208;-83
2021/08/18 13:11:09;;;;;;;;;7.67;7.67;;;;;;;;4999244;28;45357;-83
2021/08/18 13:13:34;;;;;;;;;7.00;6.33;;;;;;;;4988311;28;45442;-82
2021/08/18 13:15:59;;;;;;;;;9.75;7.75;;;;;;;;4982674;28;45480;-83
2021/08/18 13:18:24;;;;;;;;;10.33;8.00;;;;;;;;4984498;28;45428;-82
2021/08/18 13:20:49;;;;;;;;;8.33;8.00;;;;;;;;4998672;28;45391;-83
2021/08/18 13:23:15;;;;;;;;;10.67;9.00;;;;;;;;5004676;28;45344;-83
2021/08/18 13:25:40;;;;;;;;;10.33;8.00;;;;;;;;4984536;28;45585;-83
2021/08/18 13:28:05;;;;;;;;;10.50;9.50;;;;;;;;4992667;28;46211;-83
2021/08/18 13:30:30;;;;;;;;;9.00;7.33;;;;;;;;5001269;28;45268;-83
2021/08/18 13:32:55;;;;;;;;;10.00;8.00;;;;;;;;4995984;28;45429;-82
2021/08/18 13:35:29;;;;;;;;;10.33;8.67;;;;;;;;5016583;28;45171;-82
2021/08/18 13:37:56;;;;;;;;;9.50;9.00;;;;;;;;5013269;28;45626;-83
2021/08/18 13:40:21;;;;;;;;;8.25;7.50;;;;;;;;5008421;28;45434;-83
2021/08/18 13:42:47;;;;;;;;;11.00;8.00;;;;;;;;4990891;28;45175;-82
2021/08/18 13:45:12;;;;;;;;;8.75;7.75;;;;;;;;5007957;28;45214;-82
2021/08/18 13:47:38;;;;;;;;;9.00;7.67;;;;;;;;5002914;28;45402;-83
2021/08/18 13:50:03;;;;;;;;;12.00;8.00;;;;;;;;5007172;28;45507;-83
2021/08/18 13:52:28;;;;;;;;;10.00;9.00;;;;;;;;5007364;28;45243;-83
2021/08/18 13:54:53;;;;;;;;;9.00;8.25;;;;;;;;4986167;28;45477;-83
2021/08/18 13:57:19;;;;;;;;;11.33;8.33;;;;;;;;5003976;28;46554;-83
2021/08/18 13:59:44;;;;;;;;;13.50;10.50;;;;;;;;5003858;28;45187;-82
2021/08/18 14:02:09;;;;;;;;;8.67;8.00;;;;;;;;5003891;28;45211;-82
2021/08/18 14:04:34;;;;;;;;;8.00;7.33;;;;;;;;4985477;28;45319;-82
2021/08/18 14:07:00;;;;;;;;;9.00;8.00;;;;;;;;5002980;28;45398;-83
2021/08/18 14:09:25;;;;;;;;;12.75;8.25;;;;;;;;5002844;28;45230;-83
2021/08/18 14:11:50;;;;;;;;;10.33;9.00;;;;;;;;5002948;28;45199;-83
2021/08/18 14:14:15;;;;;;;;;9.33;7.67;;;;;;;;5002643;28;45277;-83
2021/08/18 14:16:40;;;;;;;;;7.33;7.33;;;;;;;;4985061;28;47210;-83
2021/08/18 14:19:06;;;;;;;;;9.50;8.00;;;;;;;;4984689;28;45384;-83
2021/08/18 14:21:32;;;;;;;;;8.00;8.00;;;;;;;;5002975;28;45496;-83
2021/08/18 14:23:57;;;;;;;;;6.33;5.33;;;;;;;;5003455;28;45460;-82
2021/08/18 14:26:22;;;;;;;;;7.67;5.00;;;;;;;;5002482;28;45672;-83
2021/08/18 14:28:47;;;;;;;;;8.33;6.00;;;;;;;;5003072;28;45298;-82
2021/08/18 14:31:13;;;;;;;;;7.25;5.00;;;;;;;;5003169;28;45465;-83
2021/08/18 14:33:38;;;;;;;;;6.75;6.25;;;;;;;;5003877;28;45254;-83
2021/08/18 14:36:03;;;;;;;;;6.50;6.00;;;;;;;;5010483;28;45630;-83